Evanston Regional Hospital, WY

7:46 PM MDT on August 26, 2016 (GMT -0600)
Evanston-Uinta County Burns | | Change Station
Active Advisory: Fire Weather Watch

Elev 7142 ft 41.27 °N, 111.03 °W | Updated 53 minutes ago

Clear
Clear
69 °F
Feels Like 69 °F
N
17
Wind Variable Wind from WSW
Gusts 25 mph

Today
High -- | Low -- °F
--% Chance of Precip.
Yesterday
High -- | Low -- °F
Precip. -- in
Pressure 29.90 in
Visibility 10.0 miles
Clouds Clear
Dew Point 19 °F
Humidity 15%
Rainfall 0.00 in
Snow Depth Not available.
6:44 AM 8:05 PM
Waning Crescent, 29% visible
METAR KEVW 270053Z AUTO 25015G22KT 10SM CLR 21/M07 A3013 RMK AO2 SLP124 T02061072 TSNO
Pressure 29.90 in
Visibility 10.0 miles
Clouds Clear
Dew Point 19 °F
Humidity 15%
Rainfall 0.00 in
Snow Depth Not available.
6:44 AM 8:05 PM
Waning Crescent, 29% visible
METAR KEVW 270053Z AUTO 25015G22KT 10SM CLR 21/M07 A3013 RMK AO2 SLP124 T02061072 TSNO

10-Day Weather Forecast

Almanac

Astronomy

Aug. 26, 2016 Rise Set
Actual Time
Civil Twilight
Nautical Twilight
Astronomical Twilight
Moon
Length of Visible Light
Length of Day
Tomorrow will be .
, % of the Moon is Illuminated

Today's Extremes

State Highs State Lows

Community

WunderPhotos

Upload Photos

1,935,268 photos uploaded!

WunderBlog® & News

Nearby

Air Quality

  Air Quality AQ Index Pollutant
Not available.

Snow Depth

Station Depth Elevation

Earthquake Activity

City Distance Mag. Time & Date
Minimum magnitude displayed is 2.5.

Coastal Water Temperatures

Place Temperature

Stations

Nearby Weather Stations

Station Location Temp. Windchill Dew Point Humidity Wind Precip. Elev Updated Type
                   

Watches & Warnings

Fire Weather Watch
Issued: 1:29 PM MDT Aug. 26, 2016 – National Weather Service

... Fire Weather Watch in effect from Saturday afternoon through
Saturday evening for very low relative humidity... strong wind
gusts and critically dry fuels for fire weather zones 277 and
278...

The National Weather Service in Riverton has issued a Fire
Weather Watch... which is in effect from Saturday afternoon
through Saturday evening.

* Affected area... fire weather zone 277. Fire weather zone 278.

* Wind... west to southwest 10 to 15 with gusts to 25 mph.

* Humidity... 10 to 15 percent.

* Impacts... any fires that develop will likely spread rapidly.
Outdoor burning is not recommended.

Precautionary/preparedness actions...

A Fire Weather Watch means that critical fire weather conditions
are forecast to occur. Listen for later forecasts and possible
red flag warnings.